createdAt,value
2018-01-20T00:01:54.357Z,83.00
2018-01-20T00:04:21.210Z,83.00
2018-01-20T00:06:48.065Z,83.10
2018-01-20T00:09:27.297Z,82.90
2018-01-20T00:12:01.262Z,82.60
2018-01-20T00:14:28.821Z,83.00
2018-01-20T00:16:56.427Z,84.00
2018-01-20T00:19:23.269Z,83.90
2018-01-20T00:21:50.114Z,84.60
2018-01-20T00:24:16.962Z,84.50
2018-01-20T00:26:43.869Z,84.30
2018-01-20T00:29:10.712Z,84.30
2018-01-20T00:31:37.600Z,84.60
2018-01-20T00:34:04.501Z,85.10
2018-01-20T00:36:31.354Z,85.10
2018-01-20T00:38:58.225Z,85.20
2018-01-20T00:41:25.042Z,85.40
2018-01-20T00:43:51.885Z,85.20
2018-01-20T00:46:18.737Z,84.70
2018-01-20T00:48:45.611Z,84.80
2018-01-20T00:51:12.457Z,84.90
2018-01-20T00:53:39.262Z,84.90
2018-01-20T00:56:06.108Z,85.10
2018-01-20T00:58:33.094Z,85.30
2018-01-20T01:00:59.948Z,84.80
2018-01-20T01:03:26.773Z,84.40
2018-01-20T01:05:54.345Z,84.90
2018-01-20T01:08:22.462Z,84.90
2018-01-20T01:10:49.309Z,85.30
2018-01-20T01:13:16.133Z,84.50
2018-01-20T01:15:43.046Z,84.90
2018-01-20T01:18:10.674Z,84.90
2018-01-20T01:20:37.578Z,84.90
2018-01-20T01:23:05.145Z,85.20
2018-01-20T01:25:31.966Z,85.20
2018-01-20T01:27:58.850Z,85.60
2018-01-20T01:30:25.714Z,85.10
2018-01-20T01:32:52.601Z,86.20
2018-01-20T01:35:19.454Z,86.00
2018-01-20T01:37:47.377Z,85.90
2018-01-20T01:40:14.977Z,86.40
2018-01-20T01:42:41.803Z,86.20
2018-01-20T01:45:08.682Z,86.00
2018-01-20T01:47:35.606Z,85.50
2018-01-20T01:50:02.521Z,85.50
2018-01-20T01:52:30.106Z,86.00
2018-01-20T01:54:56.934Z,86.00
2018-01-20T01:57:26.647Z,86.40
2018-01-20T01:59:53.486Z,86.30
2018-01-20T02:02:21.062Z,87.00
2018-01-20T02:04:48.629Z,86.70
2018-01-20T02:07:15.514Z,86.70
2018-01-20T02:09:42.433Z,86.20
2018-01-20T02:12:09.262Z,85.90
2018-01-20T02:14:36.135Z,85.60
2018-01-20T02:17:03.007Z,86.10
2018-01-20T02:19:30.074Z,86.40
2018-01-20T02:21:56.927Z,86.60
2018-01-20T02:24:23.806Z,87.40
2018-01-20T02:26:50.773Z,86.30
2018-01-20T02:29:17.618Z,86.10
2018-01-20T02:31:44.500Z,85.90
2018-01-20T02:34:11.350Z,86.00
2018-01-20T02:36:38.250Z,86.40
2018-01-20T02:39:05.186Z,86.10
2018-01-20T02:41:32.010Z,85.80
2018-01-20T02:43:58.889Z,86.00
2018-01-20T02:46:25.752Z,85.90
2018-01-20T02:48:52.646Z,86.00
2018-01-20T02:51:19.686Z,86.10
2018-01-20T02:53:46.516Z,86.90
2018-01-20T02:56:13.353Z,86.80
2018-01-20T02:58:40.237Z,86.70
2018-01-20T03:01:07.053Z,86.70
2018-01-20T03:03:33.922Z,87.30
2018-01-20T03:06:00.776Z,88.40
2018-01-20T03:08:27.722Z,87.80
2018-01-20T03:10:54.537Z,87.30
2018-01-20T03:13:21.398Z,88.10
2018-01-20T03:15:48.213Z,87.80
2018-01-20T03:18:15.080Z,86.80
2018-01-20T03:20:41.939Z,86.70
2018-01-20T03:23:09.562Z,86.70
2018-01-20T03:25:37.194Z,86.80
2018-01-20T03:28:04.123Z,86.90
2018-01-20T03:30:31.028Z,86.90
2018-01-20T03:32:57.910Z,86.60
2018-01-20T03:35:24.776Z,85.70
2018-01-20T03:37:51.693Z,85.70
2018-01-20T03:40:18.489Z,86.50
2018-01-20T03:42:45.322Z,86.90
2018-01-20T03:45:12.197Z,86.90
2018-01-20T03:47:39.160Z,86.40
2018-01-20T03:50:06.806Z,86.10
2018-01-20T03:52:34.417Z,85.80
2018-01-20T03:55:01.287Z,85.80
2018-01-20T03:57:28.129Z,85.60
2018-01-20T03:59:54.989Z,85.50
2018-01-20T04:02:21.817Z,85.60
2018-01-20T04:04:48.702Z,85.30
2018-01-20T04:07:17.387Z,86.10
2018-01-20T04:09:44.941Z,87.50
2018-01-20T04:12:12.569Z,86.10
2018-01-20T04:14:39.397Z,86.10
2018-01-20T04:17:06.272Z,85.90
2018-01-20T04:19:33.877Z,86.30
2018-01-20T04:22:00.709Z,86.30
2018-01-20T04:24:27.578Z,86.80
2018-01-20T04:26:54.557Z,86.30
2018-01-20T04:29:21.437Z,86.80
2018-01-20T04:31:49.055Z,86.70
2018-01-20T04:34:15.858Z,86.60
2018-01-20T04:36:42.701Z,87.30
2018-01-20T04:39:09.634Z,86.80
2018-01-20T04:41:36.520Z,86.10
2018-01-20T04:44:03.370Z,86.60
2018-01-20T04:46:30.192Z,86.60
2018-01-20T04:48:57.090Z,85.80
2018-01-20T04:51:24.666Z,86.10
2018-01-20T04:53:51.529Z,86.10
2018-01-20T04:56:18.385Z,86.10
2018-01-20T04:58:45.247Z,86.60
2018-01-20T05:01:12.058Z,86.50
2018-01-20T05:03:38.922Z,86.30
2018-01-20T05:06:05.753Z,86.30
2018-01-20T05:08:32.609Z,85.90
2018-01-20T05:10:59.456Z,86.00
2018-01-20T05:13:26.270Z,85.80
2018-01-20T05:15:53.073Z,86.30
2018-01-20T05:18:20.725Z,86.80
2018-01-20T05:20:47.538Z,86.70
2018-01-20T05:23:14.362Z,86.40
2018-01-20T05:25:41.213Z,86.30
2018-01-20T05:28:08.189Z,86.40
2018-01-20T05:30:35.062Z,86.60
2018-01-20T05:33:02.803Z,86.20
2018-01-20T05:35:29.613Z,86.10
2018-01-20T05:37:56.571Z,86.40
2018-01-20T05:40:23.440Z,86.50
2018-01-20T05:42:51.045Z,86.50
2018-01-20T05:45:17.946Z,86.40
2018-01-20T05:47:45.595Z,86.90
2018-01-20T05:50:12.465Z,86.80
2018-01-20T05:52:39.269Z,86.70
2018-01-20T05:55:06.130Z,86.70
2018-01-20T05:57:33.792Z,86.40
2018-01-20T06:00:00.646Z,86.40
2018-01-20T06:02:27.461Z,86.90
2018-01-20T06:04:54.368Z,86.70
2018-01-20T06:07:21.250Z,86.50
2018-01-20T06:09:48.825Z,85.90
2018-01-20T06:12:16.422Z,86.80
2018-01-20T06:14:43.365Z,86.70
2018-01-20T06:17:10.537Z,87.40
2018-01-20T06:19:37.450Z,88.50
2018-01-20T06:22:04.393Z,87.70
2018-01-20T06:24:31.434Z,87.00
2018-01-20T06:26:59.086Z,86.80
2018-01-20T06:29:26.660Z,87.00
2018-01-20T06:31:53.522Z,87.00
2018-01-20T06:34:20.371Z,87.30
2018-01-20T06:36:47.193Z,87.70
2018-01-20T06:39:14.074Z,87.40
2018-01-20T06:41:40.922Z,87.20
2018-01-20T06:44:07.776Z,87.00
2018-01-20T06:46:34.598Z,87.00
2018-01-20T06:49:01.502Z,87.20
2018-01-20T06:51:28.386Z,87.30
2018-01-20T06:53:55.269Z,87.50
2018-01-20T06:56:22.846Z,87.70
2018-01-20T06:58:49.818Z,87.70
2018-01-20T07:01:16.710Z,88.10
2018-01-20T07:03:43.621Z,88.30
2018-01-20T07:06:10.465Z,88.60
2018-01-20T07:08:37.382Z,87.70
2018-01-20T07:11:05.009Z,87.10
2018-01-20T07:13:31.908Z,87.00
2018-01-20T07:15:58.790Z,87.50
2018-01-20T07:18:25.766Z,87.30
2018-01-20T07:20:53.346Z,87.40
2018-01-20T07:23:20.928Z,87.40
2018-01-20T07:25:47.753Z,87.30
2018-01-20T07:28:14.770Z,86.90
2018-01-20T07:30:41.653Z,86.50
2018-01-20T07:33:08.538Z,86.40
2018-01-20T07:35:35.398Z,86.10
2018-01-20T07:38:03.089Z,86.90
2018-01-20T07:40:29.930Z,86.90
2018-01-20T07:42:57.255Z,86.60
2018-01-20T07:45:24.505Z,86.80
2018-01-20T07:47:52.365Z,86.40
2018-01-20T07:50:20.657Z,86.90
2018-01-20T07:52:48.975Z,86.40
2018-01-20T07:55:16.264Z,86.30
2018-01-20T07:57:44.448Z,86.90
2018-01-20T08:00:11.904Z,86.90
2018-01-20T08:02:39.477Z,86.60
2018-01-20T08:05:06.489Z,86.50
2018-01-20T08:07:33.452Z,87.70
2018-01-20T08:10:00.302Z,87.40
2018-01-20T08:12:27.915Z,88.80
2018-01-20T08:14:54.785Z,88.70
2018-01-20T08:17:21.629Z,88.10
2018-01-20T08:19:48.481Z,88.20
2018-01-20T08:22:16.050Z,86.80
2018-01-20T08:24:43.646Z,86.80
2018-01-20T08:27:10.525Z,86.80
2018-01-20T08:29:37.322Z,86.50
2018-01-20T08:32:04.221Z,86.70
2018-01-20T08:34:31.091Z,85.80
2018-01-20T08:36:58.022Z,86.30
2018-01-20T08:39:24.885Z,86.90
2018-01-20T08:41:51.748Z,86.30
2018-01-20T08:44:18.590Z,86.30
2018-01-20T08:46:45.442Z,86.20
2018-01-20T08:49:12.355Z,84.90
2018-01-20T08:51:39.930Z,84.50
2018-01-20T08:54:07.487Z,84.70
2018-01-20T08:56:34.316Z,84.70
2018-01-20T08:59:01.893Z,85.50
2018-01-20T09:01:28.757Z,85.30
2018-01-20T09:03:55.589Z,85.20
2018-01-20T09:06:22.466Z,84.40
2018-01-20T09:08:49.332Z,85.10
2018-01-20T09:11:16.938Z,84.90
2018-01-20T09:13:43.753Z,85.70
2018-01-20T09:16:11.317Z,85.50
2018-01-20T09:18:38.251Z,85.40
2018-01-20T09:21:05.814Z,84.90
2018-01-20T09:23:33.429Z,84.60
2018-01-20T09:26:00.255Z,84.60
2018-01-20T09:28:27.948Z,83.30
2018-01-20T09:30:54.806Z,83.30
2018-01-20T09:33:21.629Z,83.00
2018-01-20T09:35:48.473Z,82.00
2018-01-20T09:38:15.406Z,82.60
2018-01-20T09:40:42.254Z,82.80
2018-01-20T09:43:09.144Z,82.70
2018-01-20T09:45:35.989Z,82.10
2018-01-20T09:48:03.605Z,82.40
2018-01-20T09:50:30.494Z,82.40
2018-01-20T09:52:57.464Z,81.70
2018-01-20T09:55:24.307Z,80.60
2018-01-20T09:57:51.145Z,80.10
2018-01-20T10:00:18.761Z,77.80
2018-01-20T10:02:45.678Z,77.80
2018-01-20T10:05:12.525Z,79.00
2018-01-20T10:07:39.405Z,78.20
2018-01-20T10:10:06.276Z,76.50
2018-01-20T10:12:33.853Z,75.60
2018-01-20T10:15:00.710Z,75.60
2018-01-20T10:17:27.654Z,75.30
2018-01-20T10:19:54.506Z,75.30
2018-01-20T10:22:21.357Z,75.60
2018-01-20T10:24:48.181Z,74.00
2018-01-20T10:27:15.027Z,73.50
2018-01-20T10:29:41.901Z,72.80
2018-01-20T10:32:09.478Z,71.00
2018-01-20T10:34:36.330Z,71.10
2018-01-20T10:37:03.233Z,69.90
2018-01-20T10:39:30.057Z,68.90
2018-01-20T10:41:56.954Z,67.40
2018-01-20T10:44:23.821Z,66.40
2018-01-20T10:46:50.648Z,60.50
2018-01-20T10:49:17.484Z,57.00
2018-01-20T10:51:45.110Z,51.00
2018-01-20T10:54:12.717Z,49.40
2018-01-20T10:56:39.530Z,49.30
2018-01-20T10:59:06.614Z,48.60
2018-01-20T11:01:33.485Z,48.50
2018-01-20T11:04:00.302Z,46.60
2018-01-20T11:06:27.172Z,46.90
2018-01-20T11:08:54.042Z,46.40
2018-01-20T11:11:20.865Z,46.30
2018-01-20T11:13:47.712Z,44.90
2018-01-20T11:16:14.515Z,44.90
2018-01-20T11:18:41.442Z,43.70
2018-01-20T11:21:08.302Z,39.50
2018-01-20T11:23:35.172Z,38.80
2018-01-20T11:26:02.025Z,37.60
2018-01-20T11:28:28.985Z,35.50
2018-01-20T11:30:55.811Z,34.40
2018-01-20T11:33:22.687Z,33.00
2018-01-20T11:35:50.282Z,32.30
2018-01-20T11:38:17.153Z,32.30
2018-01-20T11:40:44.196Z,32.20
2018-01-20T11:43:11.002Z,31.10
2018-01-20T11:45:37.810Z,30.30
2018-01-20T11:48:04.797Z,29.40
2018-01-20T11:50:31.698Z,29.70
2018-01-20T11:52:59.278Z,28.50
2018-01-20T11:55:26.146Z,28.40
2018-01-20T11:57:53.087Z,29.00
2018-01-20T12:00:19.945Z,27.30
2018-01-20T12:02:46.761Z,28.10
2018-01-20T12:05:13.629Z,28.20
2018-01-20T12:07:40.493Z,28.30
2018-01-20T12:10:07.342Z,27.90
2018-01-20T12:12:34.213Z,27.00
2018-01-20T12:15:01.073Z,27.00
2018-01-20T12:17:27.978Z,26.80
2018-01-20T12:19:54.893Z,27.20
2018-01-20T12:22:21.768Z,25.60
2018-01-20T12:24:48.653Z,25.90
2018-01-20T12:27:15.598Z,25.30
2018-01-20T12:29:42.477Z,26.20
2018-01-20T12:32:09.385Z,25.20
2018-01-20T12:34:36.286Z,24.40
2018-01-20T12:37:03.264Z,25.30
2018-01-20T12:39:30.905Z,24.90
2018-01-20T12:41:57.765Z,24.80
2018-01-20T12:44:24.653Z,24.60
2018-01-20T12:46:51.529Z,24.50
2018-01-20T12:49:18.494Z,24.20
2018-01-20T12:51:46.142Z,23.40
2018-01-20T12:54:13.744Z,24.10
2018-01-20T12:56:40.599Z,24.10
2018-01-20T12:59:07.458Z,25.10
2018-01-20T13:01:34.362Z,24.20
2018-01-20T13:04:01.209Z,22.90
2018-01-20T13:06:28.045Z,23.30
2018-01-20T13:08:54.969Z,22.90
2018-01-20T13:11:22.601Z,24.30
2018-01-20T13:13:50.211Z,27.80
2018-01-20T13:16:17.068Z,27.70
2018-01-20T13:18:44.002Z,27.40
2018-01-20T13:21:10.858Z,27.80
2018-01-20T13:23:37.688Z,30.00
2018-01-20T13:26:04.558Z,31.60
2018-01-20T13:28:31.425Z,33.20
2018-01-20T13:30:58.273Z,36.90
2018-01-20T13:33:25.920Z,40.90
2018-01-20T13:35:52.750Z,40.90
2018-01-20T13:38:19.614Z,42.40
2018-01-20T13:40:46.466Z,44.80
2018-01-20T13:43:13.300Z,44.70
2018-01-20T13:45:40.194Z,47.20
2018-01-20T13:48:07.844Z,48.20
2018-01-20T13:50:34.798Z,48.00
2018-01-20T13:53:01.882Z,49.90
2018-01-20T13:55:28.717Z,49.80
2018-01-20T13:57:55.577Z,50.00
2018-01-20T14:00:22.460Z,51.30
2018-01-20T14:02:50.045Z,52.70
2018-01-20T14:05:16.902Z,52.60
2018-01-20T14:07:43.769Z,52.60
2018-01-20T14:10:10.682Z,52.00
2018-01-20T14:12:37.557Z,52.60
2018-01-20T14:15:04.425Z,53.60
2018-01-20T14:17:32.055Z,54.20
2018-01-20T14:19:58.977Z,54.10
2018-01-20T14:22:25.794Z,55.10
2018-01-20T14:24:52.796Z,55.50
2018-01-20T14:27:19.753Z,55.10
2018-01-20T14:29:47.496Z,57.30
2018-01-20T14:32:14.341Z,56.80
2018-01-20T14:34:41.289Z,57.50
2018-01-20T14:37:08.314Z,57.00
2018-01-20T14:39:35.130Z,56.60
2018-01-20T14:42:02.166Z,57.80
2018-01-20T14:44:29.056Z,56.90
2018-01-20T14:46:56.009Z,57.90
2018-01-20T14:49:23.086Z,59.20
2018-01-20T14:51:51.734Z,60.20
2018-01-20T14:54:18.982Z,60.20
2018-01-20T14:56:45.894Z,61.70
2018-01-20T14:59:13.134Z,62.50
2018-01-20T15:01:40.222Z,63.70
2018-01-20T15:04:07.367Z,63.60
2018-01-20T15:06:34.270Z,65.20
2018-01-20T15:09:02.206Z,66.60
2018-01-20T15:11:29.188Z,66.60
2018-01-20T15:13:56.181Z,67.00
2018-01-20T15:16:23.057Z,67.20
2018-01-20T15:21:39.202Z,69.10
2018-01-20T15:24:06.419Z,69.50
2018-01-20T15:26:33.275Z,69.50
2018-01-20T15:29:00.201Z,71.20
2018-01-20T15:31:27.047Z,70.30
2018-01-20T15:33:53.902Z,71.50
2018-01-20T15:36:20.814Z,71.50
2018-01-20T15:38:47.874Z,71.70
2018-01-20T15:41:14.877Z,70.90
2018-01-20T15:43:42.067Z,71.20
2018-01-20T15:46:08.986Z,72.00
2018-01-20T15:48:36.197Z,72.60
2018-01-20T15:51:03.810Z,72.40
2018-01-20T15:53:30.712Z,72.40
2018-01-20T15:55:57.660Z,72.30
2018-01-20T15:58:25.525Z,72.50
2018-01-20T16:00:53.037Z,72.30
2018-01-20T16:03:20.914Z,73.00
2018-01-20T16:05:47.769Z,73.00
2018-01-20T16:08:14.987Z,73.20
2018-01-20T16:10:42.002Z,73.40
2018-01-20T16:13:09.330Z,73.60
2018-01-20T16:15:36.653Z,74.10
2018-01-20T16:18:04.296Z,74.00
2018-01-20T16:20:31.443Z,74.10
2018-01-20T16:22:59.326Z,74.20
2018-01-20T16:25:26.827Z,74.10
2018-01-20T16:27:54.642Z,74.40
2018-01-20T16:30:21.630Z,74.30
2018-01-20T16:32:48.755Z,74.50
2018-01-20T16:35:15.710Z,75.30
2018-01-20T16:37:42.702Z,75.70
2018-01-20T16:40:10.062Z,75.20
2018-01-20T16:42:36.885Z,75.30
2018-01-20T16:45:04.059Z,75.80
2018-01-20T16:47:31.069Z,75.80
2018-01-20T16:49:58.234Z,75.10
2018-01-20T16:52:25.095Z,75.90
2018-01-20T16:54:52.079Z,76.00
2018-01-20T16:57:19.050Z,75.20
2018-01-20T16:59:45.921Z,75.30
2018-01-20T17:02:13.581Z,75.40
2018-01-20T17:04:40.501Z,75.30
2018-01-20T17:07:08.418Z,75.20
2018-01-20T17:09:35.558Z,75.00
2018-01-20T17:12:02.518Z,76.60
2018-01-20T17:14:29.429Z,76.40
2018-01-20T17:16:56.490Z,76.10
2018-01-20T17:19:24.220Z,75.60
2018-01-20T17:21:52.233Z,76.20
2018-01-20T17:24:19.262Z,76.20
2018-01-20T17:26:46.236Z,76.30
2018-01-20T17:29:13.966Z,76.20
2018-01-20T17:31:40.993Z,76.10
2018-01-20T17:34:14.545Z,75.90
2018-01-20T17:36:41.406Z,75.30
2018-01-20T17:39:08.302Z,75.90
2018-01-20T17:41:35.210Z,76.10
2018-01-20T17:44:02.135Z,75.70
2018-01-20T17:46:29.020Z,75.80
2018-01-20T17:48:56.678Z,75.70
2018-01-20T17:51:24.248Z,75.90
2018-01-20T17:53:51.138Z,75.90
2018-01-20T17:56:17.982Z,76.40
2018-01-20T17:58:45.766Z,77.60
2018-01-20T18:01:13.552Z,77.70
2018-01-20T18:03:40.591Z,77.80
2018-01-20T18:06:07.766Z,77.10
2018-01-20T18:08:34.734Z,77.40
2018-01-20T18:11:01.582Z,77.30
2018-01-20T18:13:28.463Z,77.30
2018-01-20T18:15:55.375Z,77.50
2018-01-20T18:18:22.378Z,77.80
2018-01-20T18:20:49.962Z,78.20
2018-01-20T18:23:16.826Z,78.10
2018-01-20T18:25:43.698Z,77.80
2018-01-20T18:28:11.599Z,78.60
2018-01-20T18:30:38.474Z,78.00
2018-01-20T18:33:05.326Z,78.20
2018-01-20T18:35:32.231Z,78.30
2018-01-20T18:38:03.571Z,78.60
2018-01-20T18:40:30.446Z,78.60
2018-01-20T18:42:57.293Z,78.70
2018-01-20T18:45:24.131Z,78.90
2018-01-20T18:47:51.118Z,79.30
2018-01-20T18:50:18.753Z,79.60
2018-01-20T18:55:19.305Z,79.90
2018-01-20T18:57:46.170Z,79.70
2018-01-20T19:00:13.071Z,80.00
2018-01-20T19:02:39.957Z,80.40
2018-01-20T19:05:06.846Z,80.20
2018-01-20T19:07:33.754Z,80.00
2018-01-20T19:10:00.649Z,79.70
2018-01-20T19:12:27.493Z,80.10
2018-01-20T19:14:54.330Z,80.30
2018-01-20T19:17:22.249Z,79.80
2018-01-20T19:19:49.354Z,80.40
2018-01-20T19:22:17.054Z,80.50
2018-01-20T19:24:44.778Z,80.50
2018-01-20T19:27:11.675Z,80.30
2018-01-20T19:29:38.510Z,80.60
2018-01-20T19:32:06.118Z,81.20
2018-01-20T19:34:32.962Z,81.20
2018-01-20T19:36:59.818Z,81.30
2018-01-20T19:39:26.649Z,81.90
2018-01-20T19:41:53.659Z,82.30
2018-01-20T19:44:20.547Z,82.70
2018-01-20T19:46:47.381Z,82.20
2018-01-20T19:49:16.153Z,81.80
2018-01-20T19:51:43.186Z,81.70
2018-01-20T19:54:10.862Z,82.80
2018-01-20T19:56:38.581Z,82.20
2018-01-20T19:59:05.428Z,82.20
2018-01-20T20:01:33.076Z,82.10
2018-01-20T20:04:00.015Z,81.60
2018-01-20T20:06:26.908Z,81.90
2018-01-20T20:08:54.134Z,82.00
2018-01-20T20:11:21.874Z,83.00
2018-01-20T20:13:48.787Z,82.00
2018-01-20T20:16:16.534Z,82.30
2018-01-20T20:18:43.479Z,82.10
2018-01-20T20:21:11.069Z,82.00
2018-01-20T20:23:38.086Z,82.00
2018-01-20T20:26:04.994Z,82.20
2018-01-20T20:28:31.972Z,81.70
2018-01-20T20:30:59.651Z,82.40
2018-01-20T20:33:27.238Z,82.70
2018-01-20T20:35:54.122Z,82.70
2018-01-20T20:38:21.211Z,82.80
2018-01-20T20:40:48.050Z,82.60
2018-01-20T20:43:15.210Z,82.80
2018-01-20T20:45:42.111Z,82.50
2018-01-20T20:48:09.863Z,83.30
2018-01-20T20:50:36.717Z,83.30
2018-01-20T20:53:03.861Z,83.40
2018-01-20T20:55:30.727Z,83.50
2018-01-20T20:57:57.897Z,83.00
2018-01-20T21:00:24.874Z,83.10
2018-01-20T21:02:51.708Z,83.30
2018-01-20T21:05:18.806Z,83.50
2018-01-20T21:07:45.777Z,84.20
2018-01-20T21:10:12.766Z,83.30
2018-01-20T21:12:39.593Z,82.80
2018-01-20T21:15:06.457Z,83.20
2018-01-20T21:17:33.539Z,83.70
2018-01-20T21:20:00.405Z,83.80
2018-01-20T21:22:27.251Z,84.20
2018-01-20T21:24:54.093Z,84.40
2018-01-20T21:27:20.973Z,84.40
2018-01-20T21:29:47.805Z,83.90
2018-01-20T21:32:14.790Z,84.00
2018-01-20T21:34:42.380Z,84.00
2018-01-20T21:37:09.335Z,84.00
2018-01-20T21:39:36.295Z,84.30
2018-01-20T21:42:03.217Z,84.70
2018-01-20T21:44:30.094Z,84.70
2018-01-20T21:46:56.970Z,84.30
2018-01-20T21:49:24.934Z,84.30
2018-01-20T21:51:51.830Z,84.30
2018-01-20T21:54:18.717Z,84.00
2018-01-20T21:56:46.306Z,84.50
2018-01-20T21:59:13.200Z,84.50
2018-01-20T22:01:40.082Z,84.50
2018-01-20T22:04:07.670Z,84.70
2018-01-20T22:06:34.489Z,84.70
2018-01-20T22:09:02.221Z,85.00
2018-01-20T22:11:29.349Z,85.00
2018-01-20T22:13:56.230Z,85.00
2018-01-20T22:16:23.830Z,85.40
2018-01-20T22:18:50.717Z,85.40
2018-01-20T22:21:17.578Z,84.70
2018-01-20T22:23:45.165Z,84.90
2018-01-20T22:26:12.066Z,84.80
2018-01-20T22:28:39.038Z,84.40
2018-01-20T22:31:06.626Z,85.20
2018-01-20T22:33:33.474Z,85.20
2018-01-20T22:36:00.297Z,85.40
2018-01-20T22:38:27.946Z,84.90
2018-01-20T22:40:56.421Z,85.30
2018-01-20T22:43:24.010Z,85.30
2018-01-20T22:45:51.652Z,85.40
2018-01-20T22:48:18.594Z,85.40
2018-01-20T22:50:45.494Z,85.50
2018-01-20T22:53:13.130Z,85.40
2018-01-20T22:55:39.971Z,85.30
2018-01-20T22:58:06.850Z,85.00
2018-01-20T23:00:33.732Z,85.00
2018-01-20T23:03:00.595Z,85.00
2018-01-20T23:05:27.457Z,84.80
2018-01-20T23:07:54.378Z,84.50
2018-01-20T23:10:21.209Z,85.50
2018-01-20T23:12:48.047Z,84.70
2018-01-20T23:15:14.898Z,84.80
2018-01-20T23:17:41.786Z,85.00
2018-01-20T23:20:08.647Z,85.40
2018-01-20T23:22:35.498Z,85.50
2018-01-20T23:25:03.125Z,85.10
2018-01-20T23:27:30.059Z,85.10
2018-01-20T23:29:57.894Z,85.50
2018-01-20T23:32:25.461Z,87.00
2018-01-20T23:34:53.010Z,87.00
2018-01-20T23:37:19.961Z,86.90
2018-01-20T23:39:46.830Z,86.40
2018-01-20T23:42:13.739Z,86.40
2018-01-20T23:44:40.622Z,86.60
2018-01-20T23:47:07.488Z,86.10
2018-01-20T23:49:34.382Z,86.30
2018-01-20T23:52:01.217Z,87.20
2018-01-20T23:54:28.053Z,87.30
2018-01-20T23:56:55.686Z,88.90
2018-01-20T23:59:22.662Z,88.80
